createdAt,value
2017-12-13T00:17:43.411Z,5.9
2017-12-13T00:28:43.460Z,5.7
2017-12-13T00:39:57.166Z,4.9
2017-12-13T00:50:53.904Z,4.8
2017-12-13T01:02:24.479Z,4.7
2017-12-13T01:14:19.969Z,5.4
2017-12-13T01:25:32.579Z,5.1
2017-12-13T01:37:26.684Z,5.2
2017-12-13T01:49:23.859Z,4.2
2017-12-13T02:01:13.905Z,5.2
2017-12-13T02:12:03.152Z,5.3
2017-12-13T02:23:00.974Z,4.6
2017-12-13T02:34:00.249Z,4.4
2017-12-13T02:46:00.056Z,4.5
2017-12-13T02:57:02.734Z,4.9
2017-12-13T03:07:49.256Z,6
2017-12-13T03:18:40.636Z,5.5
2017-12-13T03:40:44.022Z,4.9
2017-12-13T03:51:28.277Z,4.9
2017-12-13T04:02:26.913Z,5.2
2017-12-13T04:13:34.284Z,4.9
2017-12-13T04:24:32.064Z,4.9
2017-12-13T04:35:33.021Z,6.2
2017-12-13T05:19:31.508Z,4.5
2017-12-13T05:30:33.435Z,4.4
2017-12-13T05:41:15.026Z,4.5
2017-12-13T05:51:56.888Z,4.7
2017-12-13T06:02:45.474Z,5.9
2017-12-13T06:24:19.138Z,5.7
2017-12-13T06:35:24.841Z,4.6
2017-12-13T06:46:20.051Z,4
2017-12-13T06:57:22.376Z,4.4
2017-12-13T07:19:18.831Z,5.9
2017-12-13T07:30:33.590Z,2.9
2017-12-13T07:42:00.187Z,3.9
2017-12-13T07:52:56.476Z,4.1
2017-12-13T08:03:59.932Z,4.7
2017-12-13T08:15:05.543Z,3.9
2017-12-13T08:25:59.337Z,4.3
2017-12-13T08:36:58.050Z,3.3
2017-12-13T08:47:38.500Z,5
2017-12-13T08:58:19.945Z,4.3
2017-12-13T09:09:04.545Z,4.1
2017-12-13T09:31:06.453Z,3.2
2017-12-13T09:53:42.741Z,2.7
2017-12-13T10:05:07.424Z,2.8
2017-12-13T10:16:20.108Z,2.4
2017-12-13T10:38:35.236Z,2.6
2017-12-13T10:49:37.985Z,2.2
2017-12-13T11:00:36.490Z,2.5
2017-12-13T11:11:26.099Z,2.7
2017-12-13T11:33:06.555Z,2.3
2017-12-13T11:43:47.517Z,2.3
2017-12-13T11:54:36.336Z,2.4
2017-12-13T12:05:35.888Z,2.6
2017-12-13T12:27:20.969Z,2.6
2017-12-13T12:38:11.783Z,2.7
2017-12-13T12:49:08.536Z,2.5
2017-12-13T13:00:05.905Z,2.4
2017-12-13T13:32:40.975Z,2.8
2017-12-13T13:43:31.613Z,2.7
2017-12-13T13:54:24.083Z,2.8
2017-12-13T14:05:06.045Z,3.1
2017-12-13T14:15:46.257Z,3.6
2017-12-13T14:26:25.330Z,2.6
2017-12-13T14:37:06.592Z,3.1
2017-12-13T14:58:29.433Z,3.4
2017-12-13T15:09:13.864Z,3.1
2017-12-13T15:19:55.517Z,3.1
2017-12-13T15:30:55.927Z,3.3
2017-12-13T15:43:10.292Z,3.6
2017-12-13T15:54:41.402Z,3.8
2017-12-13T16:06:14.067Z,3.9
2017-12-13T16:18:26.756Z,4.4
2017-12-13T18:49:57.389Z,5.7
2017-12-13T19:00:41.482Z,4.2
2017-12-13T19:11:28.741Z,4.1
2017-12-13T19:22:14.749Z,5.5
2017-12-13T19:32:57.857Z,5.5
2017-12-13T19:43:41.692Z,3.6
2017-12-13T19:54:46.880Z,4
2017-12-13T20:06:00.920Z,5.8
2017-12-13T20:16:58.141Z,3.5
2017-12-13T20:27:52.097Z,3.9
2017-12-13T21:11:05.165Z,3.3
2017-12-13T21:21:57.996Z,3.5
2017-12-13T21:32:42.648Z,2.7
2017-12-13T21:43:25.969Z,2.5
2017-12-13T21:54:12.120Z,2.7
2017-12-13T22:04:53.753Z,3
2017-12-13T22:15:37.355Z,2.8
2017-12-13T22:26:20.925Z,2.3
2017-12-13T22:37:04.696Z,2.2
2017-12-13T22:47:50.127Z,2.1
2017-12-13T22:58:46.991Z,2.1
2017-12-13T23:09:42.430Z,2.1
2017-12-13T23:20:34.834Z,2
2017-12-13T23:31:21.066Z,2.4
2017-12-13T23:42:08.724Z,1.9
2017-12-13T23:52:58.735Z,2.2
